DABB/AAE METAR and TAF weather

Enter ICAO airport designator
Station Type Date Time Source
DABB METAR 2019/02/23 02:30 UTC NOAA

DABB 230230Z 35014KT 9999 FEW020 SCT030 13/10 Q1023


Station Type Date Time Source
DABB Decoded METAR 2019/02/23 02:30 UTC NOAA

Annaba, Algeria (DABB) 36-50N 007-49E 4M
Feb 22, 2019 - 09:30 PM EST / 2019.02.23 0230 UTC
Wind: from the N (350 degrees) at 16 MPH (14 KT):0
Visibility: greater than 7 mile(s):0
Sky conditions: partly cloudy
Temperature: 55 F (13 C)
Dew Point: 50 F (10 C)
Relative Humidity: 81%
Pressure (altimeter): 30.21 in. Hg (1023 hPa)
ob: DABB 230230Z 35014KT 9999 FEW020 SCT030 13/10 Q1023
cycle: 2

Station Type Date Time Source
DABB TAF 2019/02/22 18:33 UTC NOAA

TAF DABB 221700Z 2218/2318 31014KT 8000 FEW020 SCT030 PROB30
TEMPO 2218/2312 5000 RA FEW023CB


Example: see airport list